createdAt,value
2023-03-28T00:00:33.976Z,7.06
2023-03-28T00:03:00.441Z,7.07
2023-03-28T00:05:28.129Z,7.04
2023-03-28T00:07:54.896Z,6.91
2023-03-28T00:10:21.346Z,6.75
2023-03-28T00:12:47.986Z,6.83
2023-03-28T00:15:15.259Z,6.86
2023-03-28T00:17:41.730Z,6.80
2023-03-28T00:20:10.573Z,6.74
2023-03-28T00:22:39.169Z,6.69
2023-03-28T00:25:07.398Z,6.60
2023-03-28T00:27:35.240Z,6.53
2023-03-28T00:30:03.586Z,6.44
2023-03-28T00:32:30.055Z,6.46
2023-03-28T00:34:56.500Z,6.53
2023-03-28T00:37:23.171Z,6.65
2023-03-28T00:39:53.860Z,6.74
2023-03-28T00:42:23.249Z,6.91
2023-03-28T00:44:53.384Z,7.00
2023-03-28T00:47:45.574Z,7.00
2023-03-28T00:50:36.712Z,6.91
2023-03-28T00:53:09.379Z,6.90
2023-03-28T00:55:51.680Z,6.94
2023-03-28T00:58:23.164Z,6.93
2023-03-28T01:00:50.733Z,6.81
2023-03-28T01:03:19.434Z,6.77
2023-03-28T01:05:47.855Z,6.85
2023-03-28T01:08:26.565Z,6.77
2023-03-28T01:10:53.043Z,6.95
2023-03-28T01:13:26.978Z,7.08
2023-03-28T01:15:53.882Z,6.97
2023-03-28T01:18:23.890Z,6.97
2023-03-28T01:21:16.915Z,6.79
2023-03-28T01:23:49.283Z,6.90
2023-03-28T01:26:34.415Z,7.08
2023-03-28T01:29:19.128Z,6.96
2023-03-28T01:32:13.766Z,6.83
2023-03-28T01:35:01.516Z,6.69
2023-03-28T01:37:52.201Z,6.63
2023-03-28T01:40:26.083Z,6.75
2023-03-28T01:42:59.860Z,6.87
2023-03-28T01:45:43.042Z,6.77
2023-03-28T01:48:28.094Z,6.78
2023-03-28T01:51:19.520Z,6.83
2023-03-28T01:54:01.631Z,6.91
2023-03-28T01:56:50.360Z,6.98
2023-03-28T01:59:38.483Z,6.96
2023-03-28T02:02:14.002Z,7.01
2023-03-28T02:04:45.216Z,7.09
2023-03-28T02:07:13.409Z,7.14
2023-03-28T02:09:43.975Z,7.21
2023-03-28T02:12:16.929Z,7.27
2023-03-28T02:14:46.714Z,7.27
2023-03-28T02:17:16.499Z,7.28
2023-03-28T02:19:50.936Z,6.95
2023-03-28T02:22:30.979Z,6.52
2023-03-28T02:24:57.729Z,6.19
2023-03-28T02:27:24.235Z,5.95
2023-03-28T02:29:54.300Z,5.79
2023-03-28T02:32:24.226Z,5.74
2023-03-28T02:34:54.029Z,5.92
2023-03-28T02:37:38.474Z,6.02
2023-03-28T02:40:08.031Z,6.03
2023-03-28T02:42:55.648Z,5.98
2023-03-28T02:45:40.840Z,5.88
2023-03-28T02:48:25.628Z,5.86
2023-03-28T02:51:00.810Z,5.84
2023-03-28T02:53:36.311Z,5.86
2023-03-28T02:56:14.655Z,5.87
2023-03-28T02:58:52.375Z,5.98
2023-03-28T03:01:19.481Z,6.16
2023-03-28T03:03:47.030Z,6.24
2023-03-28T03:06:13.837Z,6.23
2023-03-28T03:08:40.264Z,6.17
2023-03-28T03:11:06.886Z,6.13
2023-03-28T03:13:33.337Z,6.22
2023-03-28T03:16:00.364Z,6.29
2023-03-28T03:18:27.511Z,6.27
2023-03-28T03:20:54.753Z,6.25
2023-03-28T03:23:21.547Z,6.35
2023-03-28T03:25:50.516Z,6.34
2023-03-28T03:28:17.124Z,6.33
2023-03-28T03:30:43.551Z,6.22
2023-03-28T03:33:11.332Z,6.22
2023-03-28T03:35:45.774Z,6.20
2023-03-28T03:38:13.113Z,5.98
2023-03-28T03:40:39.753Z,5.73
2023-03-28T03:43:06.253Z,5.60
2023-03-28T03:45:32.651Z,5.48
2023-03-28T03:47:59.153Z,5.47
2023-03-28T03:50:25.658Z,5.35
2023-03-28T03:52:52.074Z,5.43
2023-03-28T03:55:18.564Z,5.42
2023-03-28T03:57:45.278Z,5.30
2023-03-28T04:00:12.517Z,5.33
2023-03-28T04:02:40.050Z,5.28
2023-03-28T04:05:08.461Z,5.29
2023-03-28T04:07:35.692Z,5.22
2023-03-28T04:10:02.683Z,5.16
2023-03-28T04:12:29.119Z,5.31
2023-03-28T04:14:55.953Z,5.26
2023-03-28T04:17:23.427Z,5.17
2023-03-28T04:19:49.971Z,5.21
2023-03-28T04:22:18.276Z,5.33
2023-03-28T04:24:45.787Z,5.26
2023-03-28T04:27:12.332Z,5.17
2023-03-28T04:29:39.305Z,5.09
2023-03-28T04:32:06.593Z,5.08
2023-03-28T04:34:33.923Z,5.13
2023-03-28T04:37:02.158Z,5.02
2023-03-28T04:39:35.677Z,5.02
2023-03-28T04:42:04.335Z,4.93
2023-03-28T04:44:31.525Z,4.94
2023-03-28T04:46:58.252Z,5.02
2023-03-28T04:49:25.660Z,4.88
2023-03-28T04:51:52.185Z,4.86
2023-03-28T04:54:19.332Z,4.98
2023-03-28T04:56:49.762Z,4.91
2023-03-28T04:59:17.757Z,4.90
2023-03-28T05:01:49.694Z,4.98
2023-03-28T05:04:17.971Z,5.05
2023-03-28T05:06:46.382Z,4.94
2023-03-28T05:09:14.581Z,4.94
2023-03-28T05:11:43.629Z,5.00
2023-03-28T05:14:10.838Z,4.92
2023-03-28T05:16:40.988Z,4.91
2023-03-28T05:19:10.059Z,4.99
2023-03-28T05:21:41.114Z,4.59
2023-03-28T05:24:08.880Z,4.24
2023-03-28T05:26:38.374Z,4.15
2023-03-28T05:29:05.233Z,4.16
2023-03-28T05:31:33.751Z,4.19
2023-03-28T05:34:03.035Z,4.40
2023-03-28T05:36:30.258Z,4.52
2023-03-28T05:38:57.202Z,4.40
2023-03-28T05:41:26.349Z,4.49
2023-03-28T05:43:53.138Z,4.70
2023-03-28T05:46:19.976Z,4.84
2023-03-28T05:48:49.293Z,4.88
2023-03-28T05:51:16.994Z,4.73
2023-03-28T05:53:45.749Z,4.57
2023-03-28T05:56:12.508Z,4.70
2023-03-28T05:58:40.335Z,4.67
2023-03-28T06:01:08.040Z,4.68
2023-03-28T06:03:40.469Z,4.78
2023-03-28T06:06:08.308Z,4.84
2023-03-28T06:08:35.060Z,4.88
2023-03-28T06:11:02.848Z,4.85
2023-03-28T06:13:31.155Z,4.89
2023-03-28T06:15:58.414Z,4.90
2023-03-28T06:18:25.440Z,4.95
2023-03-28T06:20:52.274Z,5.15
2023-03-28T06:23:18.987Z,5.13
2023-03-28T06:25:45.523Z,5.22
2023-03-28T06:28:11.992Z,5.54
2023-03-28T06:30:40.032Z,5.62
2023-03-28T06:33:06.899Z,5.60
2023-03-28T06:35:37.001Z,5.74
2023-03-28T06:38:03.566Z,6.00
2023-03-28T06:40:30.594Z,6.14
2023-03-28T06:42:57.082Z,6.33
2023-03-28T06:45:23.981Z,6.57
2023-03-28T06:47:51.217Z,6.76
2023-03-28T06:50:18.749Z,6.96
2023-03-28T06:52:45.805Z,6.96
2023-03-28T06:55:12.791Z,7.00
2023-03-28T06:57:39.645Z,7.09
2023-03-28T07:00:07.381Z,7.26
2023-03-28T07:02:34.662Z,7.50
2023-03-28T07:05:01.317Z,7.68
2023-03-28T07:07:27.912Z,7.82
2023-03-28T07:09:54.810Z,8.02
2023-03-28T07:12:21.780Z,8.00
2023-03-28T07:14:48.325Z,8.05
2023-03-28T07:17:15.497Z,8.20
2023-03-28T07:19:41.947Z,8.27
2023-03-28T07:22:08.627Z,8.25
2023-03-28T07:24:36.076Z,8.33
2023-03-28T07:27:14.885Z,8.48
2023-03-28T07:29:43.152Z,8.81
2023-03-28T07:32:11.334Z,9.02
2023-03-28T07:34:37.930Z,8.99
2023-03-28T07:37:05.521Z,9.14
2023-03-28T07:39:32.202Z,9.34
2023-03-28T07:41:58.706Z,9.41
2023-03-28T07:44:25.419Z,9.11
2023-03-28T07:46:52.785Z,9.05
2023-03-28T07:49:23.150Z,9.34
2023-03-28T07:51:50.429Z,9.57
2023-03-28T07:54:19.989Z,9.62
2023-03-28T07:56:49.619Z,9.70
2023-03-28T07:59:17.261Z,9.82
2023-03-28T08:01:49.032Z,9.76
2023-03-28T08:04:15.769Z,9.87
2023-03-28T08:06:42.327Z,9.88
2023-03-28T08:09:11.585Z,10.06
2023-03-28T08:11:39.806Z,10.18
2023-03-28T08:14:11.175Z,10.17
2023-03-28T08:16:41.201Z,10.51
2023-03-28T08:19:11.668Z,10.71
2023-03-28T08:21:41.456Z,10.79
2023-03-28T08:24:09.636Z,10.95
2023-03-28T08:26:37.539Z,10.99
2023-03-28T08:29:04.888Z,11.14
2023-03-28T08:31:31.605Z,11.19
2023-03-28T08:33:58.566Z,11.30
2023-03-28T08:36:27.175Z,11.35
2023-03-28T08:38:57.387Z,11.42
2023-03-28T08:41:46.290Z,11.30
2023-03-28T08:44:18.790Z,11.41
2023-03-28T08:46:49.843Z,11.54
2023-03-28T08:49:17.991Z,11.63
2023-03-28T08:51:57.648Z,11.56
2023-03-28T08:54:27.626Z,11.71
2023-03-28T08:56:57.301Z,11.78
2023-03-28T08:59:44.431Z,11.88
2023-03-28T09:02:28.469Z,12.01
2023-03-28T09:05:08.224Z,12.02
2023-03-28T09:08:23.913Z,11.84
2023-03-28T09:10:58.387Z,11.91
2023-03-28T09:13:34.743Z,12.13
2023-03-28T09:16:20.149Z,12.26
2023-03-28T09:19:11.227Z,12.22
2023-03-28T09:22:15.977Z,12.07
2023-03-28T09:25:15.475Z,12.19
2023-03-28T09:28:06.914Z,12.54
2023-03-28T09:30:38.041Z,12.74
2023-03-28T09:33:15.996Z,12.79
2023-03-28T09:35:43.425Z,12.92
2023-03-28T09:38:38.205Z,12.98
2023-03-28T09:41:12.054Z,13.12
2023-03-28T09:43:51.349Z,13.01
2023-03-28T09:46:40.280Z,12.80
2023-03-28T09:49:15.499Z,12.86
2023-03-28T09:51:43.568Z,12.86
2023-03-28T09:54:11.476Z,13.26
2023-03-28T09:56:48.011Z,13.74
2023-03-28T09:59:37.627Z,14.12
2023-03-28T10:02:05.451Z,14.29
2023-03-28T10:04:38.519Z,14.38
2023-03-28T10:07:11.208Z,14.37
2023-03-28T10:09:55.120Z,14.07
2023-03-28T10:12:32.026Z,14.28
2023-03-28T10:14:58.654Z,14.71
2023-03-28T10:17:30.351Z,14.58
2023-03-28T10:20:04.802Z,14.38
2023-03-28T10:22:34.922Z,14.51
2023-03-28T10:25:07.940Z,14.53
2023-03-28T10:27:43.271Z,14.44
2023-03-28T10:30:25.407Z,14.77
2023-03-28T10:33:29.555Z,14.87
2023-03-28T10:36:09.607Z,14.09
2023-03-28T10:38:49.756Z,14.19
2023-03-28T10:41:28.248Z,14.40
2023-03-28T10:43:57.688Z,14.48
2023-03-28T10:46:39.994Z,14.60
2023-03-28T10:49:14.467Z,14.61
2023-03-28T10:51:42.166Z,14.27
2023-03-28T10:54:11.639Z,14.26
2023-03-28T10:56:52.665Z,15.00
2023-03-28T10:59:19.316Z,15.03
2023-03-28T11:02:02.145Z,15.02
2023-03-28T11:04:50.963Z,15.22
2023-03-28T11:07:50.843Z,14.79
2023-03-28T11:10:26.165Z,14.60
2023-03-28T11:13:04.836Z,14.76
2023-03-28T11:15:57.656Z,15.16
2023-03-28T11:18:40.566Z,15.52
2023-03-28T11:21:25.368Z,15.55
2023-03-28T11:24:19.555Z,15.60
2023-03-28T11:27:02.107Z,15.56
2023-03-28T11:29:49.235Z,15.69
2023-03-28T11:32:31.611Z,15.69
2023-03-28T11:35:01.634Z,15.36
2023-03-28T11:37:31.096Z,15.54
2023-03-28T11:40:20.187Z,15.61
2023-03-28T11:42:57.248Z,15.76
2023-03-28T11:45:52.274Z,15.69
2023-03-28T11:48:46.153Z,15.40
2023-03-28T11:51:25.729Z,15.63
2023-03-28T11:53:54.853Z,15.68
2023-03-28T11:56:56.317Z,15.93
2023-03-28T11:59:26.421Z,15.61
2023-03-28T12:02:01.935Z,15.84
2023-03-28T12:04:42.979Z,15.92
2023-03-28T12:07:20.917Z,15.37
2023-03-28T12:09:56.569Z,15.47
2023-03-28T12:12:32.733Z,15.66
2023-03-28T12:15:05.780Z,15.71
2023-03-28T12:17:40.298Z,16.02
2023-03-28T12:20:16.105Z,16.22
2023-03-28T12:22:47.494Z,16.14
2023-03-28T12:25:26.200Z,16.11
2023-03-28T12:28:00.349Z,16.32
2023-03-28T12:30:54.857Z,16.43
2023-03-28T12:33:37.387Z,16.34
2023-03-28T12:36:24.180Z,16.30
2023-03-28T12:38:59.685Z,16.36
2023-03-28T12:41:34.542Z,16.20
2023-03-28T12:44:12.731Z,16.58
2023-03-28T12:46:51.562Z,16.77
2023-03-28T12:49:29.842Z,16.72
2023-03-28T12:52:05.273Z,16.58
2023-03-28T12:54:52.325Z,16.51
2023-03-28T12:57:46.120Z,16.41
2023-03-28T13:00:48.801Z,16.41
2023-03-28T13:03:51.813Z,16.34
2023-03-28T13:06:36.574Z,16.44
2023-03-28T13:09:17.954Z,16.71
2023-03-28T13:12:19.037Z,16.78
2023-03-28T13:15:17.874Z,16.90
2023-03-28T13:18:09.085Z,16.91
2023-03-28T13:20:45.062Z,16.65
2023-03-28T13:23:14.278Z,16.61
2023-03-28T13:25:44.285Z,16.59
2023-03-28T13:28:11.219Z,16.66
2023-03-28T13:30:57.883Z,16.64
2023-03-28T13:33:38.928Z,16.67
2023-03-28T13:36:06.066Z,16.69
2023-03-28T13:38:46.439Z,16.81
2023-03-28T13:41:41.380Z,16.62
2023-03-28T13:44:16.947Z,16.69
2023-03-28T13:46:46.310Z,16.70
2023-03-28T13:49:31.661Z,16.56
2023-03-28T13:52:11.136Z,16.45
2023-03-28T13:54:37.874Z,16.59
2023-03-28T13:57:15.402Z,16.68
2023-03-28T14:00:01.050Z,16.52
2023-03-28T14:02:36.852Z,16.61
2023-03-28T14:05:25.456Z,16.57
2023-03-28T14:07:54.622Z,16.58
2023-03-28T14:10:34.359Z,16.61
2023-03-28T14:13:05.386Z,16.47
2023-03-28T14:15:36.615Z,16.40
2023-03-28T14:18:12.906Z,16.25
2023-03-28T14:20:40.480Z,16.18
2023-03-28T14:23:07.331Z,16.28
2023-03-28T14:25:36.087Z,16.28
2023-03-28T14:28:08.936Z,16.43
2023-03-28T14:30:43.768Z,16.45
2023-03-28T14:33:13.503Z,16.37
2023-03-28T14:35:42.919Z,16.40
2023-03-28T14:38:16.015Z,16.33
2023-03-28T14:40:45.468Z,16.30
2023-03-28T14:43:13.829Z,16.18
2023-03-28T14:45:45.787Z,16.20
2023-03-28T14:48:18.199Z,16.20
2023-03-28T14:50:49.184Z,16.20
2023-03-28T14:53:22.203Z,16.22
2023-03-28T14:55:51.079Z,16.07
2023-03-28T14:58:22.455Z,16.10
2023-03-28T15:00:52.850Z,16.17
2023-03-28T15:03:24.044Z,16.09
2023-03-28T15:05:52.876Z,16.07
2023-03-28T15:08:38.580Z,16.03
2023-03-28T15:11:08.634Z,16.01
2023-03-28T15:13:41.648Z,15.94
2023-03-28T15:16:09.347Z,15.94
2023-03-28T15:18:47.747Z,15.88
2023-03-28T15:21:18.793Z,15.91
2023-03-28T15:23:54.236Z,15.90
2023-03-28T15:26:45.237Z,15.95
2023-03-28T15:29:16.603Z,15.94
2023-03-28T15:31:43.535Z,15.94
2023-03-28T15:34:12.363Z,16.04
2023-03-28T15:36:49.230Z,16.00
2023-03-28T15:39:26.118Z,15.91
2023-03-28T15:42:18.054Z,15.81
2023-03-28T15:45:19.025Z,15.82
2023-03-28T15:47:48.490Z,15.75
2023-03-28T15:50:40.120Z,15.75
2023-03-28T15:53:12.468Z,15.74
2023-03-28T15:55:40.731Z,15.81
2023-03-28T15:58:13.451Z,15.79
2023-03-28T16:00:41.962Z,15.70
2023-03-28T16:03:25.195Z,15.71
2023-03-28T16:06:31.887Z,15.65
2023-03-28T16:09:22.228Z,15.48
2023-03-28T16:12:00.763Z,15.45
2023-03-28T16:14:27.603Z,15.51
2023-03-28T16:16:56.002Z,15.47
2023-03-28T16:19:26.634Z,15.48
2023-03-28T16:21:54.119Z,15.50
2023-03-28T16:24:20.736Z,15.52
2023-03-28T16:26:48.181Z,15.44
2023-03-28T16:29:15.053Z,15.44
2023-03-28T16:31:41.666Z,15.44
2023-03-28T16:34:09.981Z,15.41
2023-03-28T16:36:37.391Z,15.38
2023-03-28T16:39:06.250Z,15.29
2023-03-28T16:41:32.803Z,15.26
2023-03-28T16:43:59.405Z,15.23
2023-03-28T16:46:26.154Z,15.21
2023-03-28T16:48:52.715Z,15.16
2023-03-28T16:51:19.335Z,15.14
2023-03-28T16:53:45.907Z,15.18
2023-03-28T16:56:12.610Z,15.11
2023-03-28T16:58:39.780Z,14.95
2023-03-28T17:01:09.362Z,14.88
2023-03-28T17:03:36.656Z,14.81
2023-03-28T17:06:08.947Z,14.75
2023-03-28T17:08:36.370Z,14.70
2023-03-28T17:11:06.310Z,14.67
2023-03-28T17:13:34.385Z,14.62
2023-03-28T17:16:01.324Z,14.53
2023-03-28T17:18:29.854Z,14.43
2023-03-28T17:21:08.222Z,14.36
2023-03-28T17:23:37.327Z,14.28
2023-03-28T17:26:07.539Z,14.18
2023-03-28T17:28:39.072Z,14.15
2023-03-28T17:31:08.363Z,14.16
2023-03-28T17:33:35.367Z,14.14
2023-03-28T17:36:23.421Z,14.08
2023-03-28T17:38:51.429Z,13.97
2023-03-28T17:41:23.368Z,13.85
2023-03-28T17:43:51.217Z,13.82
2023-03-28T17:46:18.167Z,13.66
2023-03-28T17:48:45.150Z,13.59
2023-03-28T17:51:14.501Z,13.47
2023-03-28T17:53:43.344Z,13.31
2023-03-28T17:56:11.787Z,13.25
2023-03-28T17:58:39.231Z,13.05
2023-03-28T18:01:11.553Z,13.03
2023-03-28T18:03:41.487Z,12.94
2023-03-28T18:06:08.909Z,12.82
2023-03-28T18:08:35.813Z,12.77
2023-03-28T18:11:09.539Z,12.79
2023-03-28T18:13:37.254Z,12.70
2023-03-28T18:16:09.136Z,12.61
2023-03-28T18:18:36.199Z,12.54
2023-03-28T18:21:04.209Z,12.52
2023-03-28T18:23:31.843Z,12.47
2023-03-28T18:25:58.422Z,12.50
2023-03-28T18:28:25.051Z,12.39
2023-03-28T18:30:51.522Z,12.35
2023-03-28T18:33:19.349Z,12.42
2023-03-28T18:35:46.860Z,12.27
2023-03-28T18:38:13.954Z,12.14
2023-03-28T18:40:40.838Z,12.06
2023-03-28T18:43:08.005Z,12.16
2023-03-28T18:45:35.845Z,12.21
2023-03-28T18:48:02.419Z,12.16
2023-03-28T18:50:29.757Z,12.06
2023-03-28T18:52:57.376Z,12.03
2023-03-28T18:55:24.154Z,11.93
2023-03-28T18:57:50.615Z,11.80
2023-03-28T19:00:20.518Z,11.80
2023-03-28T19:02:48.877Z,11.78
2023-03-28T19:05:16.627Z,11.76
2023-03-28T19:07:44.361Z,11.67
2023-03-28T19:10:13.173Z,11.63
2023-03-28T19:12:41.072Z,11.69
2023-03-28T19:15:08.643Z,11.70
2023-03-28T19:17:37.807Z,11.52
2023-03-28T19:20:12.281Z,11.39
2023-03-28T19:22:40.339Z,11.32
2023-03-28T19:25:08.189Z,11.31
2023-03-28T19:27:35.914Z,11.41
2023-03-28T19:30:02.958Z,11.48
2023-03-28T19:32:30.552Z,11.52
2023-03-28T19:34:57.239Z,11.35
2023-03-28T19:37:23.752Z,11.23
2023-03-28T19:39:50.237Z,11.17
2023-03-28T19:42:18.102Z,11.18
2023-03-28T19:44:44.570Z,11.08
2023-03-28T19:47:11.537Z,11.09
2023-03-28T19:49:38.731Z,10.96
2023-03-28T19:52:05.675Z,10.98
2023-03-28T19:54:32.292Z,10.96
2023-03-28T19:56:58.766Z,10.95
2023-03-28T19:59:25.269Z,10.77
2023-03-28T20:01:51.819Z,10.80
2023-03-28T20:04:20.786Z,10.82
2023-03-28T20:06:48.728Z,10.77
2023-03-28T20:09:15.444Z,10.68
2023-03-28T20:11:42.110Z,10.65
2023-03-28T20:14:09.244Z,10.77
2023-03-28T20:16:35.977Z,10.79
2023-03-28T20:19:02.927Z,10.79
2023-03-28T20:21:29.595Z,10.76
2023-03-28T20:23:58.541Z,10.71
2023-03-28T20:26:27.078Z,10.65
2023-03-28T20:28:56.814Z,10.61
2023-03-28T20:31:23.690Z,10.45
2023-03-28T20:33:52.628Z,10.41
2023-03-28T20:36:19.179Z,10.32
2023-03-28T20:38:45.736Z,10.36
2023-03-28T20:41:14.304Z,10.33
2023-03-28T20:43:46.540Z,10.38
2023-03-28T20:46:18.401Z,10.39
2023-03-28T20:48:46.482Z,10.37
2023-03-28T20:51:17.148Z,10.36
2023-03-28T20:53:45.993Z,10.44
2023-03-28T20:56:13.624Z,10.37
2023-03-28T20:58:40.796Z,10.34
2023-03-28T21:01:09.262Z,10.26
2023-03-28T21:03:52.026Z,10.09
2023-03-28T21:06:25.290Z,10.03
2023-03-28T21:08:54.294Z,9.97
2023-03-28T21:11:24.749Z,9.79
2023-03-28T21:13:51.234Z,9.67
2023-03-28T21:16:18.342Z,9.67
2023-03-28T21:18:45.566Z,9.66
2023-03-28T21:21:13.797Z,9.64
2023-03-28T21:23:41.081Z,9.72
2023-03-28T21:26:19.144Z,9.70
2023-03-28T21:28:46.436Z,9.64
2023-03-28T21:31:15.845Z,9.65
2023-03-28T21:33:42.768Z,9.61
2023-03-28T21:36:12.249Z,9.53
2023-03-28T21:38:40.049Z,9.55
2023-03-28T21:41:07.498Z,9.38
2023-03-28T21:43:34.410Z,9.26
2023-03-28T21:46:01.331Z,9.11
2023-03-28T21:48:29.004Z,9.04
2023-03-28T21:51:03.045Z,8.95
2023-03-28T21:53:33.126Z,9.05
2023-03-28T21:56:00.097Z,9.02
2023-03-28T21:58:32.709Z,8.96
2023-03-28T22:01:01.562Z,9.04
2023-03-28T22:03:29.100Z,9.00
2023-03-28T22:05:56.074Z,8.89
2023-03-28T22:08:22.904Z,8.71
2023-03-28T22:10:58.538Z,8.64
2023-03-28T22:13:25.277Z,8.67
2023-03-28T22:15:58.465Z,8.71
2023-03-28T22:18:25.899Z,8.77
2023-03-28T22:20:53.356Z,8.79
2023-03-28T22:23:22.412Z,8.74
2023-03-28T22:25:49.350Z,8.67
2023-03-28T22:28:16.254Z,8.68
2023-03-28T22:30:42.771Z,8.50
2023-03-28T22:33:11.017Z,8.47
2023-03-28T22:35:38.318Z,8.66
2023-03-28T22:38:05.555Z,8.76
2023-03-28T22:40:32.240Z,8.49
2023-03-28T22:42:58.971Z,8.44
2023-03-28T22:45:28.587Z,8.44
2023-03-28T22:47:58.345Z,8.47
2023-03-28T22:50:25.036Z,8.46
2023-03-28T22:52:52.483Z,8.39
2023-03-28T22:55:22.065Z,8.11
2023-03-28T22:57:51.348Z,8.07
2023-03-28T23:00:18.978Z,8.22
2023-03-28T23:02:46.654Z,8.28
2023-03-28T23:05:13.597Z,8.14
2023-03-28T23:07:41.492Z,8.14
2023-03-28T23:10:14.525Z,8.20
2023-03-28T23:12:42.072Z,8.04
2023-03-28T23:15:09.346Z,7.90
2023-03-28T23:17:35.819Z,7.89
2023-03-28T23:20:03.416Z,7.97
2023-03-28T23:22:29.822Z,7.99
2023-03-28T23:24:56.289Z,7.88
2023-03-28T23:27:22.687Z,7.89
2023-03-28T23:29:49.078Z,7.86
2023-03-28T23:32:15.794Z,7.94
2023-03-28T23:34:42.231Z,8.01
2023-03-28T23:37:09.934Z,8.03
2023-03-28T23:39:37.513Z,8.04
2023-03-28T23:42:03.997Z,7.95
2023-03-28T23:44:31.273Z,7.86
2023-03-28T23:46:57.823Z,7.84
2023-03-28T23:49:24.339Z,7.80
2023-03-28T23:51:50.885Z,7.96
2023-03-28T23:54:18.578Z,7.99
2023-03-28T23:56:45.049Z,7.95
2023-03-28T23:59:12.023Z,8.01
